Time;durP1;ratioP1;P1;durP2;ratioP2;P2;SDS_P1;SDS_P2;PMS_P1;PMS_P2;Temp;Humidity;BMP_temperature;BMP_pressure;BME280_temperature;BME280_humidity;BME280_pressure;Samples;Min_cycle;Max_cycle;Signal;HPM_P1;HPM_P2
2023/01/29 00:01:33;;;;;;;13.82;8.00;;;-0.20;99.90;;;;;;5085955;28;20067;-30
2023/01/29 00:03:58;;;;;;;16.05;8.27;;;-0.20;99.90;;;;;;5095034;28;20039;-30
2023/01/29 00:06:24;;;;;;;12.40;8.07;;;-0.20;99.90;;;;;;5086763;28;20438;-29
2023/01/29 00:08:49;;;;;;;13.45;7.85;;;-0.20;99.90;;;;;;5091677;28;20044;-30
2023/01/29 00:11:15;;;;;;;13.40;8.43;;;-0.20;99.90;;;;;;5093263;28;20032;-32
2023/01/29 00:13:42;;;;;;;11.98;8.30;;;-0.20;99.90;;;;;;5094131;28;20035;-30
2023/01/29 00:16:08;;;;;;;15.68;9.10;;;-0.20;99.90;;;;;;5090904;28;20122;-32
2023/01/29 00:18:37;;;;;;;16.83;9.10;;;-0.30;99.90;;;;;;5077543;28;20449;-30
2023/01/29 00:21:07;;;;;;;12.77;8.20;;;-0.30;99.90;;;;;;5088425;28;20062;-31
2023/01/29 00:23:32;;;;;;;16.42;8.52;;;-0.30;99.90;;;;;;5090950;28;20024;-36
2023/01/29 00:26:01;;;;;;;14.82;8.15;;;-0.30;99.90;;;;;;5086866;28;20120;-30
2023/01/29 00:28:26;;;;;;;14.30;8.43;;;-0.30;99.90;;;;;;5089157;28;20016;-30
2023/01/29 00:30:52;;;;;;;11.82;8.25;;;-0.30;99.90;;;;;;5079196;28;20119;-34
2023/01/29 00:33:17;;;;;;;14.90;7.38;;;-0.40;99.90;;;;;;5089719;28;20031;-30
2023/01/29 00:35:43;;;;;;;11.70;7.13;;;-0.40;99.90;;;;;;5089258;28;20492;-29
2023/01/29 00:38:08;;;;;;;15.63;9.48;;;-0.30;99.90;;;;;;5093706;28;20476;-30
2023/01/29 00:46:07;;;;;;;14.93;8.55;;;-0.40;99.90;;;;;;5089592;28;20074;-31
2023/01/29 00:48:33;;;;;;;13.35;8.95;;;-0.40;99.90;;;;;;5094670;28;20076;-34
2023/01/29 00:51:00;;;;;;;15.20;8.00;;;-0.40;99.90;;;;;;5079651;28;20036;-31
2023/01/29 00:53:25;;;;;;;13.93;8.30;;;-0.50;99.90;;;;;;5090767;28;20070;-29
2023/01/29 00:55:51;;;;;;;15.05;9.30;;;-0.40;99.90;;;;;;5092262;28;20053;-30
2023/01/29 00:58:21;;;;;;;13.93;8.50;;;-0.50;99.90;;;;;;5090483;28;20036;-30
2023/01/29 01:00:50;;;;;;;14.93;8.32;;;-0.50;99.90;;;;;;5083364;28;20537;-30
2023/01/29 01:03:16;;;;;;;12.10;8.02;;;-0.50;99.90;;;;;;5087801;28;20427;-30
2023/01/29 01:05:42;;;;;;;14.45;8.85;;;-0.50;99.90;;;;;;5088862;28;20044;-31
2023/01/29 01:11:02;;;;;;;16.27;9.00;;;-0.50;99.90;;;;;;5089009;28;20447;-31
2023/01/29 01:13:28;;;;;;;12.57;8.45;;;-0.50;99.90;;;;;;5073056;28;20154;-30
2023/01/29 01:15:53;;;;;;;14.90;8.43;;;-0.50;99.90;;;;;;5093144;28;20032;-30
2023/01/29 01:18:21;;;;;;;14.23;7.72;;;-0.50;99.90;;;;;;5091673;28;20035;-30
2023/01/29 01:20:50;;;;;;;13.65;7.90;;;-0.60;99.90;;;;;;5094261;28;20046;-31
2023/01/29 01:23:17;;;;;;;15.32;8.88;;;-0.50;99.90;;;;;;5086033;28;20074;-30
2023/01/29 01:25:42;;;;;;;15.15;8.80;;;-0.50;99.90;;;;;;5093880;28;20111;-30
2023/01/29 01:28:09;;;;;;;13.27;7.40;;;-0.60;99.90;;;;;;5088730;28;20127;-30
2023/01/29 01:30:35;;;;;;;13.05;8.95;;;-0.60;99.90;;;;;;5090716;28;20101;-30
2023/01/29 01:33:01;;;;;;;11.93;7.70;;;-0.50;99.90;;;;;;5082133;28;20032;-32
2023/01/29 01:35:26;;;;;;;13.63;8.23;;;-0.50;99.90;;;;;;5080755;28;20040;-31
2023/01/29 01:37:52;;;;;;;22.40;8.82;;;-0.50;99.90;;;;;;5092297;28;20024;-30
2023/01/29 01:40:23;;;;;;;16.67;7.70;;;-0.50;99.90;;;;;;5091575;28;20241;-31
2023/01/29 01:42:55;;;;;;;13.65;8.43;;;-0.50;99.90;;;;;;5095552;28;20035;-31
2023/01/29 01:45:31;;;;;;;17.23;8.55;;;-0.50;99.90;;;;;;5093191;28;20504;-34
2023/01/29 01:48:04;;;;;;;14.23;8.23;;;-0.50;99.90;;;;;;5093507;28;20039;-31
2023/01/29 01:50:41;;;;;;;11.30;7.05;;;-0.50;99.90;;;;;;5087165;28;20028;-31
2023/01/29 01:53:22;;;;;;;10.07;7.55;;;-0.50;99.90;;;;;;5095462;28;20043;-30
2023/01/29 01:55:55;;;;;;;12.65;7.47;;;-0.50;99.90;;;;;;5090577;28;20066;-31
2023/01/29 01:58:55;;;;;;;11.35;7.75;;;-0.50;99.90;;;;;;5091226;28;20038;-32
2023/01/29 02:01:29;;;;;;;11.18;7.15;;;-0.60;99.90;;;;;;5085177;28;20082;-31
2023/01/29 02:09:56;;;;;;;9.70;6.15;;;-0.60;99.90;;;;;;5089334;28;20078;-31
2023/01/29 02:12:22;;;;;;;8.73;6.18;;;-0.60;99.90;;;;;;5085176;28;20493;-30
2023/01/29 02:14:50;;;;;;;11.80;7.25;;;-0.60;99.90;;;;;;5088002;28;20032;-31
2023/01/29 02:17:18;;;;;;;12.40;6.70;;;-0.60;99.90;;;;;;5078482;28;20015;-32
2023/01/29 02:19:51;;;;;;;12.40;7.63;;;-0.60;99.90;;;;;;5080696;28;20074;-31
2023/01/29 02:23:00;;;;;;;11.75;6.60;;;-0.60;99.90;;;;;;5088608;28;20413;-31
2023/01/29 02:25:58;;;;;;;9.55;6.03;;;-0.60;99.90;;;;;;5083320;28;20024;-29
2023/01/29 02:28:30;;;;;;;16.60;7.13;;;-0.60;99.90;;;;;;5088654;28;20036;-29
2023/01/29 02:31:17;;;;;;;11.00;6.05;;;-0.60;99.90;;;;;;5084287;28;20035;-31
2023/01/29 02:34:00;;;;;;;8.38;5.57;;;-0.60;99.90;;;;;;5087253;28;20032;-29
2023/01/29 02:36:52;;;;;;;12.23;6.78;;;-0.60;99.90;;;;;;5095460;28;20539;-31
2023/01/29 02:39:42;;;;;;;8.63;5.70;;;-0.60;99.90;;;;;;5081208;28;20046;-34
2023/01/29 02:42:10;;;;;;;9.63;6.90;;;-0.60;99.90;;;;;;5089325;28;20053;-30
2023/01/29 02:44:59;;;;;;;8.75;5.70;;;-0.60;99.90;;;;;;5084263;28;20030;-29
2023/01/29 02:47:31;;;;;;;7.35;5.28;;;-0.50;99.90;;;;;;5089835;28;20039;-31
2023/01/29 02:50:05;;;;;;;9.98;6.60;;;-0.50;99.90;;;;;;5081673;28;20465;-35
2023/01/29 02:52:37;;;;;;;14.57;8.15;;;-0.50;99.90;;;;;;5086190;28;20065;-31
2023/01/29 02:55:12;;;;;;;10.32;7.45;;;-0.60;99.90;;;;;;5083652;28;20058;-33
2023/01/29 02:57:43;;;;;;;6.35;5.70;;;-0.60;99.90;;;;;;5086767;28;20051;-33
2023/01/29 03:00:28;;;;;;;11.15;6.35;;;-0.60;99.90;;;;;;5084755;28;20028;-34
2023/01/29 03:03:05;;;;;;;12.70;7.45;;;-0.60;99.90;;;;;;5071816;28;20417;-30
2023/01/29 03:05:58;;;;;;;8.85;6.68;;;-0.60;99.90;;;;;;5083437;28;20103;-29
2023/01/29 03:08:44;;;;;;;13.23;8.38;;;-0.60;99.90;;;;;;5083033;28;20074;-29
2023/01/29 03:11:14;;;;;;;11.40;6.68;;;-0.60;99.90;;;;;;5085700;28;20032;-29
2023/01/29 03:13:48;;;;;;;11.63;7.18;;;-0.60;99.90;;;;;;5090295;28;20029;-32
2023/01/29 03:16:28;;;;;;;11.27;6.85;;;-0.60;99.90;;;;;;5087454;28;20032;-32
2023/01/29 03:19:01;;;;;;;13.05;7.15;;;-0.60;99.90;;;;;;5083077;28;20027;-29
2023/01/29 03:21:59;;;;;;;10.52;5.97;;;-0.60;99.90;;;;;;5088621;28;20028;-32
2023/01/29 03:32:52;;;;;;;14.10;7.45;;;-0.60;99.90;;;;;;5088859;28;20644;-31
2023/01/29 03:35:35;;;;;;;13.55;7.80;;;-0.70;99.90;;;;;;5082227;28;20032;-33
2023/01/29 03:38:02;;;;;;;10.43;7.07;;;-0.70;99.90;;;;;;5089793;28;20027;-29
2023/01/29 03:40:47;;;;;;;11.15;5.78;;;-0.60;99.90;;;;;;5081162;28;20085;-31
2023/01/29 03:43:35;;;;;;;8.60;5.90;;;-0.60;99.90;;;;;;5076715;28;20541;-32
2023/01/29 03:46:17;;;;;;;11.90;7.20;;;-0.60;99.90;;;;;;5081623;28;20035;-30
2023/01/29 03:49:14;;;;;;;10.02;5.38;;;-0.50;99.90;;;;;;5071222;28;20028;-30
2023/01/29 03:51:52;;;;;;;12.85;6.93;;;-0.60;99.90;;;;;;5087357;28;20082;-30
2023/01/29 03:54:27;;;;;;;14.57;8.25;;;-0.50;99.90;;;;;;5073752;28;20050;-34
2023/01/29 03:57:04;;;;;;;10.15;6.28;;;-0.60;99.90;;;;;;5087205;28;20087;-32
2023/01/29 03:59:59;;;;;;;9.32;5.75;;;-0.60;99.90;;;;;;5090077;28;20028;-30
2023/01/29 04:02:33;;;;;;;9.23;6.32;;;-0.60;99.90;;;;;;5075994;28;20066;-31
2023/01/29 04:05:08;;;;;;;12.60;7.00;;;-0.60;99.90;;;;;;5079691;28;20424;-32
2023/01/29 04:07:35;;;;;;;15.35;6.63;;;-0.60;99.90;;;;;;5088300;28;20034;-30
2023/01/29 04:10:15;;;;;;;11.20;7.20;;;-0.60;99.90;;;;;;5089419;28;20060;-31
2023/01/29 04:13:09;;;;;;;13.40;7.53;;;-0.60;99.90;;;;;;5093658;28;20057;-32
2023/01/29 04:15:46;;;;;;;10.50;6.85;;;-0.70;99.90;;;;;;5081714;28;20122;-29
2023/01/29 04:18:12;;;;;;;8.68;6.30;;;-0.70;99.90;;;;;;5101096;28;20038;-29
2023/01/29 04:20:38;;;;;;;12.63;6.50;;;-0.70;99.90;;;;;;5086305;28;20548;-33
2023/01/29 04:23:18;;;;;;;12.02;6.85;;;-0.70;99.90;;;;;;5094339;28;20439;-31
2023/01/29 04:25:49;;;;;;;12.48;6.78;;;-0.70;99.90;;;;;;5088380;28;20424;-30
2023/01/29 04:28:25;;;;;;;10.10;6.25;;;-0.70;99.90;;;;;;5092576;28;20047;-30
2023/01/29 04:30:59;;;;;;;11.13;7.35;;;-0.70;99.90;;;;;;5095438;28;20027;-30
2023/01/29 04:33:44;;;;;;;10.60;6.07;;;-0.70;99.90;;;;;;5094354;28;20055;-32
2023/01/29 04:36:28;;;;;;;15.77;7.35;;;-0.70;99.90;;;;;;5083788;28;20023;-33
2023/01/29 04:39:20;;;;;;;11.15;7.60;;;-0.80;99.90;;;;;;5095734;28;20081;-33
2023/01/29 04:41:51;;;;;;;9.73;6.15;;;-0.70;99.90;;;;;;5080541;28;20110;-34
2023/01/29 04:44:32;;;;;;;11.77;6.57;;;-0.70;99.90;;;;;;5090583;28;20402;-30
2023/01/29 04:47:16;;;;;;;8.95;7.32;;;-0.80;99.90;;;;;;5092897;28;20115;-31
2023/01/29 04:49:48;;;;;;;11.85;7.75;;;-0.80;99.90;;;;;;5092729;28;20112;-30
2023/01/29 04:52:41;;;;;;;10.60;6.43;;;-0.70;99.90;;;;;;5091301;28;20054;-30
2023/01/29 04:55:20;;;;;;;10.25;6.63;;;-0.80;99.90;;;;;;5088122;28;20110;-30
2023/01/29 04:58:00;;;;;;;11.82;6.63;;;-0.80;99.90;;;;;;5095023;28;20028;-30
2023/01/29 05:00:31;;;;;;;13.23;7.95;;;-0.80;99.90;;;;;;5086041;28;20389;-29
2023/01/29 05:03:00;;;;;;;14.10;7.47;;;-0.80;99.90;;;;;;5098007;28;20157;-30
2023/01/29 05:05:26;;;;;;;12.02;7.53;;;-0.80;99.90;;;;;;5086047;28;20068;-34
2023/01/29 05:07:54;;;;;;;12.68;7.30;;;-0.80;99.90;;;;;;5088071;28;20032;-34
2023/01/29 05:10:21;;;;;;;13.48;7.03;;;-0.80;99.90;;;;;;5089514;28;20477;-30
2023/01/29 05:12:53;;;;;;;11.02;6.60;;;-0.70;99.90;;;;;;5094820;28;20086;-30
2023/01/29 05:15:25;;;;;;;10.27;6.22;;;-0.70;99.90;;;;;;5080585;28;20032;-30
2023/01/29 05:17:52;;;;;;;11.75;6.65;;;-0.70;99.90;;;;;;5095561;28;20074;-31
2023/01/29 05:20:19;;;;;;;13.35;7.38;;;-0.80;99.90;;;;;;5094140;28;20518;-30
2023/01/29 05:22:47;;;;;;;10.05;6.25;;;-0.70;99.90;;;;;;5096334;28;20550;-30
2023/01/29 05:25:24;;;;;;;8.23;6.27;;;-0.70;99.90;;;;;;5083065;28;20093;-31
2023/01/29 05:28:10;;;;;;;9.60;6.70;;;-0.60;99.90;;;;;;5089910;28;20043;-32
2023/01/29 05:30:37;;;;;;;10.65;6.45;;;-0.60;99.90;;;;;;5071081;28;20032;-30
2023/01/29 05:33:10;;;;;;;11.02;6.32;;;-0.60;99.90;;;;;;5095780;28;20039;-30
2023/01/29 05:35:35;;;;;;;13.80;7.63;;;-0.60;99.90;;;;;;5082330;28;20031;-33
2023/01/29 05:38:01;;;;;;;11.88;6.72;;;-0.70;99.90;;;;;;5088920;28;20035;-34
2023/01/29 05:40:27;;;;;;;14.00;7.50;;;-0.70;99.90;;;;;;5083271;28;20104;-29
2023/01/29 05:42:52;;;;;;;12.80;7.57;;;-0.70;99.90;;;;;;5094178;28;20056;-34
2023/01/29 05:45:18;;;;;;;13.82;7.50;;;-0.70;99.90;;;;;;5085432;28;20035;-33
2023/01/29 05:47:45;;;;;;;10.70;7.25;;;-0.80;99.90;;;;;;5063594;28;20040;-30
2023/01/29 05:50:13;;;;;;;13.63;7.63;;;-0.80;99.90;;;;;;5087600;28;20032;-31
2023/01/29 05:52:39;;;;;;;13.93;8.38;;;-0.80;99.90;;;;;;5096079;28;20020;-32
2023/01/29 05:55:06;;;;;;;15.55;8.27;;;-0.80;99.90;;;;;;5093240;28;20044;-30
2023/01/29 05:57:32;;;;;;;12.35;7.65;;;-0.80;99.90;;;;;;5092737;28;20020;-32
2023/01/29 05:59:58;;;;;;;10.98;7.00;;;-0.80;99.90;;;;;;5090446;28;20031;-32
2023/01/29 06:02:30;;;;;;;11.95;6.78;;;-0.80;99.90;;;;;;5085454;28;20046;-34
2023/01/29 06:04:56;;;;;;;12.35;7.22;;;-0.80;99.90;;;;;;5088084;28;20103;-30
2023/01/29 06:07:21;;;;;;;14.65;7.85;;;-0.70;99.90;;;;;;5094202;28;20177;-30
2023/01/29 06:09:47;;;;;;;11.65;7.20;;;-0.70;99.90;;;;;;5088324;28;20051;-37
2023/01/29 06:12:12;;;;;;;12.25;7.88;;;-0.80;99.90;;;;;;5094664;28;20445;-29
2023/01/29 06:14:38;;;;;;;10.93;7.13;;;-0.80;99.90;;;;;;5086489;28;20032;-30
2023/01/29 06:17:04;;;;;;;9.85;6.10;;;-0.80;99.90;;;;;;5083876;28;20056;-32
2023/01/29 06:19:29;;;;;;;11.15;6.38;;;-0.70;99.90;;;;;;5089324;28;20469;-29
2023/01/29 06:21:55;;;;;;;11.65;7.03;;;-0.80;99.90;;;;;;5091439;28;20168;-29
2023/01/29 06:24:21;;;;;;;10.95;7.05;;;-0.80;99.90;;;;;;5094068;28;20020;-30
2023/01/29 06:26:47;;;;;;;11.55;6.88;;;-0.80;99.90;;;;;;5083730;28;20028;-30
2023/01/29 06:29:12;;;;;;;10.90;6.40;;;-0.80;99.90;;;;;;5087776;28;20024;-30
2023/01/29 06:31:38;;;;;;;9.63;7.10;;;-0.80;99.90;;;;;;5074134;28;20029;-33
2023/01/29 06:34:03;;;;;;;10.93;7.18;;;-0.90;99.90;;;;;;5072720;28;20028;-29
2023/01/29 06:36:29;;;;;;;9.75;6.28;;;-0.80;99.90;;;;;;5075353;28;20423;-32
2023/01/29 06:38:55;;;;;;;7.88;5.65;;;-0.80;99.90;;;;;;5081608;28;20398;-30
2023/01/29 06:41:24;;;;;;;12.70;6.25;;;-0.80;99.90;;;;;;5092770;28;20031;-29
2023/01/29 06:43:50;;;;;;;9.43;6.00;;;-0.70;99.90;;;;;;5087375;28;20400;-30
2023/01/29 06:46:16;;;;;;;9.70;6.40;;;-0.70;99.90;;;;;;5089695;28;20500;-31
2023/01/29 06:48:42;;;;;;;14.82;7.50;;;-0.70;99.90;;;;;;5077867;28;20028;-31
2023/01/29 06:51:08;;;;;;;9.63;6.35;;;-0.80;99.90;;;;;;5083669;28;20046;-30
2023/01/29 06:53:35;;;;;;;8.98;5.47;;;-0.80;99.90;;;;;;5083181;28;20059;-30
2023/01/29 06:56:02;;;;;;;10.63;5.72;;;-0.80;99.90;;;;;;5087264;28;20035;-30
2023/01/29 06:58:28;;;;;;;10.45;5.72;;;-0.70;99.90;;;;;;5083662;28;20038;-30
2023/01/29 07:00:53;;;;;;;8.85;5.75;;;-0.60;99.90;;;;;;5084425;28;20112;-31
2023/01/29 07:03:19;;;;;;;7.45;6.00;;;-0.60;99.90;;;;;;5091202;28;20532;-30
2023/01/29 07:05:51;;;;;;;8.30;5.15;;;-0.70;99.90;;;;;;5085420;28;20040;-30
2023/01/29 07:08:17;;;;;;;13.40;6.82;;;-0.60;99.90;;;;;;5080164;28;20048;-31
2023/01/29 07:10:43;;;;;;;7.25;5.53;;;-0.50;99.90;;;;;;5079352;28;20032;-31
2023/01/29 07:13:09;;;;;;;9.70;6.25;;;-0.50;99.90;;;;;;5090436;28;20389;-29
2023/01/29 07:15:35;;;;;;;7.70;5.18;;;-0.50;99.90;;;;;;5089581;28;20378;-30
2023/01/29 07:18:10;;;;;;;10.63;6.32;;;-0.40;99.90;;;;;;5081531;28;20328;-31
2023/01/29 07:20:38;;;;;;;10.57;6.13;;;-0.30;99.90;;;;;;5080859;28;20043;-33
2023/01/29 07:23:05;;;;;;;9.65;5.88;;;-0.40;99.90;;;;;;5085227;28;20055;-31
2023/01/29 07:25:32;;;;;;;10.93;6.75;;;-0.40;99.90;;;;;;5088735;28;20035;-31
2023/01/29 07:27:59;;;;;;;9.20;5.82;;;-0.40;99.90;;;;;;5080066;28;20036;-32
2023/01/29 07:30:25;;;;;;;9.68;5.38;;;-0.30;99.90;;;;;;5087458;28;20085;-29
2023/01/29 07:32:51;;;;;;;7.80;6.32;;;-0.30;99.90;;;;;;5093100;28;20493;-29
2023/01/29 07:35:16;;;;;;;11.02;7.13;;;-0.20;99.90;;;;;;5083780;28;20028;-29
2023/01/29 07:37:42;;;;;;;9.27;5.57;;;-0.20;99.90;;;;;;5084012;28;20019;-30
2023/01/29 07:40:10;;;;;;;8.63;6.10;;;-0.20;99.90;;;;;;5086247;28;20135;-29
2023/01/29 07:42:37;;;;;;;7.07;5.78;;;-0.30;99.90;;;;;;5091560;28;20032;-30
2023/01/29 07:45:03;;;;;;;11.05;6.63;;;-0.40;99.90;;;;;;5068298;28;20063;-31
2023/01/29 07:47:28;;;;;;;8.13;6.13;;;-0.40;99.90;;;;;;5093935;28;20539;-32
2023/01/29 07:49:54;;;;;;;12.45;7.05;;;-0.40;99.90;;;;;;5085764;28;20145;-34
2023/01/29 07:52:20;;;;;;;8.57;6.13;;;-0.40;99.90;;;;;;5078095;28;20025;-29
2023/01/29 07:54:45;;;;;;;9.70;6.38;;;-0.40;99.90;;;;;;5094056;28;20037;-29
2023/01/29 07:57:11;;;;;;;11.48;6.25;;;-0.40;99.90;;;;;;5088318;28;20322;-29
2023/01/29 07:59:36;;;;;;;12.38;7.28;;;-0.40;99.90;;;;;;5081113;28;20191;-29
2023/01/29 08:02:02;;;;;;;14.50;8.43;;;-0.40;99.90;;;;;;5083716;28;20452;-29
2023/01/29 08:04:27;;;;;;;12.82;7.63;;;-0.50;99.90;;;;;;5083597;28;20030;-29
2023/01/29 08:06:53;;;;;;;14.38;8.70;;;-0.50;99.90;;;;;;5089216;28;20021;-32
2023/01/29 08:09:18;;;;;;;11.38;7.22;;;-0.60;99.90;;;;;;5068369;28;20044;-31
2023/01/29 08:11:44;;;;;;;13.52;7.47;;;-0.60;99.90;;;;;;5068726;28;20077;-29
2023/01/29 08:14:10;;;;;;;11.70;7.38;;;-0.50;99.90;;;;;;5059239;28;20041;-31
2023/01/29 08:16:35;;;;;;;14.65;8.73;;;-0.50;99.90;;;;;;5069534;28;20054;-29
2023/01/29 08:19:01;;;;;;;10.52;6.47;;;-0.50;99.90;;;;;;5073510;28;20040;-30
2023/01/29 08:21:27;;;;;;;10.15;6.82;;;-0.60;99.90;;;;;;5088912;28;20028;-30
2023/01/29 08:23:52;;;;;;;10.70;7.30;;;-0.50;99.90;;;;;;5092894;28;20052;-34
2023/01/29 08:26:18;;;;;;;11.82;6.80;;;-0.50;99.90;;;;;;5068451;28;20077;-32
2023/01/29 08:28:44;;;;;;;13.07;6.22;;;-0.50;99.90;;;;;;5068921;28;20043;-30
2023/01/29 08:31:14;;;;;;;9.15;6.90;;;-0.40;99.90;;;;;;5067178;28;20111;-30
2023/01/29 08:33:40;;;;;;;18.25;6.70;;;-0.40;99.90;;;;;;5070660;28;20028;-32
2023/01/29 08:36:07;;;;;;;10.68;7.70;;;-0.40;99.90;;;;;;5090917;28;20012;-30
2023/01/29 08:38:32;;;;;;;13.90;7.97;;;-0.40;99.90;;;;;;5074672;28;20058;-30
2023/01/29 08:40:58;;;;;;;10.40;6.70;;;-0.40;99.90;;;;;;5084111;28;20137;-30
2023/01/29 08:43:23;;;;;;;11.40;7.22;;;-0.40;99.90;;;;;;5073853;28;20032;-30
2023/01/29 08:45:49;;;;;;;12.77;6.97;;;-0.40;99.90;;;;;;5095030;28;20476;-29
2023/01/29 08:48:14;;;;;;;12.93;7.78;;;-0.40;99.90;;;;;;5086299;28;20024;-30
2023/01/29 08:50:40;;;;;;;13.57;8.23;;;-0.40;99.90;;;;;;5081932;28;20329;-31
2023/01/29 08:53:07;;;;;;;12.20;6.85;;;-0.40;99.90;;;;;;5086729;28;20048;-30
2023/01/29 08:55:38;;;;;;;12.40;8.02;;;-0.40;99.90;;;;;;5094181;28;20536;-29
2023/01/29 08:58:05;;;;;;;9.65;6.45;;;-0.30;99.90;;;;;;5081765;28;20122;-29
2023/01/29 09:00:32;;;;;;;13.35;6.90;;;-0.30;99.90;;;;;;5080721;28;20032;-29
2023/01/29 09:03:02;;;;;;;10.93;7.50;;;-0.30;99.90;;;;;;5073098;28;20047;-32
2023/01/29 09:05:28;;;;;;;14.07;6.43;;;-0.30;99.90;;;;;;5089491;28;20044;-29
2023/01/29 09:07:56;;;;;;;12.80;7.15;;;-0.20;99.90;;;;;;5095263;28;20071;-33
2023/01/29 09:10:22;;;;;;;11.30;7.20;;;-0.20;99.90;;;;;;5075129;28;20543;-30
2023/01/29 09:12:47;;;;;;;13.20;8.25;;;-0.20;99.90;;;;;;5074090;28;20033;-30
2023/01/29 09:15:13;;;;;;;11.20;7.78;;;-0.20;99.90;;;;;;5074205;28;20024;-30
2023/01/29 09:17:39;;;;;;;10.48;6.47;;;-0.20;99.90;;;;;;5092393;28;20035;-34
2023/01/29 09:20:06;;;;;;;18.50;8.25;;;-0.20;99.90;;;;;;5075492;28;20024;-30
2023/01/29 09:22:31;;;;;;;11.00;6.07;;;-0.10;99.90;;;;;;5083211;28;20089;-29
2023/01/29 09:24:58;;;;;;;11.75;6.65;;;-0.20;99.90;;;;;;5075461;28;20343;-34
2023/01/29 09:27:24;;;;;;;12.05;6.72;;;-0.20;99.90;;;;;;5075219;28;20040;-30
2023/01/29 09:29:49;;;;;;;9.50;6.72;;;-0.10;99.90;;;;;;5074285;28;20032;-32
2023/01/29 09:32:15;;;;;;;10.98;7.45;;;-0.10;99.90;;;;;;5083691;28;20054;-30
2023/01/29 09:34:40;;;;;;;11.10;6.75;;;-0.10;99.90;;;;;;5081320;28;20077;-30
2023/01/29 09:37:06;;;;;;;13.30;6.82;;;-0.10;99.90;;;;;;5095140;28;20032;-29
2023/01/29 09:39:32;;;;;;;11.63;6.88;;;-0.10;99.90;;;;;;5090607;28;20075;-34
2023/01/29 09:42:03;;;;;;;9.65;6.35;;;0.00;99.90;;;;;;5057115;28;20032;-31
2023/01/29 09:44:49;;;;;;;10.52;6.68;;;0.00;99.90;;;;;;5092663;28;20027;-30
2023/01/29 09:47:18;;;;;;;11.38;6.70;;;0.00;99.90;;;;;;5063288;28;20553;-31
2023/01/29 09:50:10;;;;;;;10.10;5.53;;;0.00;99.90;;;;;;5090383;28;20042;-32
2023/01/29 09:52:45;;;;;;;10.23;5.88;;;0.00;99.90;;;;;;5081578;28;20036;-30
2023/01/29 09:55:19;;;;;;;9.38;6.00;;;0.00;99.90;;;;;;5091108;28;20024;-34
2023/01/29 09:57:52;;;;;;;11.05;5.97;;;0.10;99.90;;;;;;5089379;28;20039;-29
2023/01/29 10:00:25;;;;;;;8.90;4.47;;;0.10;99.90;;;;;;5083848;28;20035;-29
2023/01/29 10:03:03;;;;;;;4.03;3.20;;;0.20;99.90;;;;;;5093020;28;20031;-29
2023/01/29 10:06:04;;;;;;;6.68;4.47;;;0.20;99.90;;;;;;5088026;28;20063;-28
2023/01/29 10:08:53;;;;;;;7.13;4.43;;;0.20;99.90;;;;;;5077579;28;20097;-33
2023/01/29 10:11:34;;;;;;;4.82;4.03;;;0.20;99.90;;;;;;5077617;28;20050;-31
2023/01/29 10:14:46;;;;;;;2.50;2.20;;;0.30;99.90;;;;;;5081072;28;20032;-29
2023/01/29 10:17:37;;;;;;;5.00;3.95;;;0.20;99.90;;;;;;5024170;28;20033;-29
2023/01/29 10:20:38;;;;;;;7.07;4.18;;;0.20;99.90;;;;;;5024514;28;20037;-33
2023/01/29 10:23:31;;;;;;;7.35;4.13;;;0.20;99.90;;;;;;5064765;28;20134;-29
2023/01/29 10:25:57;;;;;;;5.50;3.35;;;0.10;99.90;;;;;;5088784;28;20435;-29
2023/01/29 10:28:45;;;;;;;5.72;4.30;;;0.20;99.90;;;;;;5091345;28;20021;-30
2023/01/29 10:31:23;;;;;;;3.72;2.90;;;0.30;99.90;;;;;;5054587;28;20512;-29
2023/01/29 10:34:13;;;;;;;2.78;2.58;;;0.30;99.90;;;;;;5087390;28;20168;-32
2023/01/29 10:36:47;;;;;;;4.03;3.65;;;0.20;99.90;;;;;;5092097;28;20122;-30
2023/01/29 10:39:21;;;;;;;3.90;3.50;;;0.20;99.90;;;;;;5086757;28;20021;-30
2023/01/29 10:42:05;;;;;;;6.07;3.92;;;0.30;99.90;;;;;;5086266;28;20119;-30
2023/01/29 10:44:45;;;;;;;5.25;3.95;;;0.30;99.90;;;;;;5084169;28;20016;-32
2023/01/29 10:47:46;;;;;;;5.35;4.00;;;0.30;99.90;;;;;;5078999;28;20599;-30
2023/01/29 10:50:18;;;;;;;4.90;4.10;;;0.30;99.90;;;;;;5093807;28;20024;-30
2023/01/29 10:53:11;;;;;;;5.63;3.90;;;0.30;99.90;;;;;;5083146;28;20389;-32
2023/01/29 10:55:53;;;;;;;5.72;3.70;;;0.30;99.90;;;;;;5084776;28;20032;-32
2023/01/29 10:58:35;;;;;;;7.05;4.70;;;0.40;99.90;;;;;;5086041;28;20031;-30
2023/01/29 11:01:01;;;;;;;5.35;3.53;;;0.40;99.90;;;;;;5081137;28;20024;-30
2023/01/29 11:03:29;;;;;;;5.28;3.70;;;0.40;99.90;;;;;;5084162;28;20115;-31
2023/01/29 11:05:55;;;;;;;;;;;0.40;99.90;;;;;;5084479;28;20481;-29
2023/01/29 11:08:23;;;;;;;5.85;4.13;;;0.30;99.90;;;;;;5086189;28;19964;-30
2023/01/29 11:11:12;;;;;;;7.40;4.10;;;0.40;99.90;;;;;;5076221;28;20027;-29
2023/01/29 11:13:51;;;;;;;8.23;4.47;;;0.40;99.90;;;;;;5075930;28;20033;-29
2023/01/29 11:16:17;;;;;;;7.97;4.97;;;0.50;99.90;;;;;;5084360;28;20024;-29
2023/01/29 11:19:00;;;;;;;4.32;3.88;;;0.50;99.90;;;;;;5087016;28;20427;-28
2023/01/29 11:21:27;;;;;;;6.40;4.65;;;0.50;99.90;;;;;;5085185;28;20033;-30
2023/01/29 11:24:06;;;;;;;5.75;4.22;;;0.50;99.90;;;;;;5096223;28;20045;-28
2023/01/29 11:26:36;;;;;;;6.20;4.70;;;0.50;99.90;;;;;;5087869;28;20036;-31
2023/01/29 11:29:02;;;;;;;6.30;4.45;;;0.50;99.90;;;;;;5090072;28;20020;-29
2023/01/29 11:31:38;;;;;;;7.60;4.82;;;0.50;99.90;;;;;;5093216;28;20033;-29
2023/01/29 11:34:23;;;;;;;8.10;4.95;;;0.50;99.90;;;;;;5079773;28;20559;-31
2023/01/29 11:37:01;;;;;;;4.40;3.47;;;0.60;99.90;;;;;;5089461;28;20031;-29
2023/01/29 11:39:28;;;;;;;7.80;5.00;;;0.60;99.90;;;;;;5076514;28;20528;-29
2023/01/29 11:42:03;;;;;;;7.78;5.85;;;0.60;99.90;;;;;;5091297;28;20028;-30
2023/01/29 11:44:32;;;;;;;2.08;1.98;;;0.60;99.90;;;;;;5095392;28;20074;-29
2023/01/29 11:47:09;;;;;;;4.50;3.53;;;0.60;99.90;;;;;;5088595;28;20034;-32
2023/01/29 11:49:36;;;;;;;6.40;5.13;;;0.40;99.90;;;;;;5088771;28;20028;-33
2023/01/29 11:52:04;;;;;;;9.23;5.68;;;0.30;99.90;;;;;;5089251;28;20060;-30
2023/01/29 11:54:33;;;;;;;;;;;0.40;99.90;;;;;;5090279;28;20032;-31
2023/01/29 11:56:59;;;;;;;4.03;3.47;;;0.40;99.90;;;;;;5086904;28;19957;-29
2023/01/29 11:59:31;;;;;;;8.75;4.40;;;0.40;99.90;;;;;;5071820;28;20075;-30
2023/01/29 12:02:12;;;;;;;4.22;3.03;;;0.50;99.90;;;;;;5080167;28;20454;-31
2023/01/29 12:04:39;;;;;;;10.25;5.05;;;0.50;99.90;;;;;;5090005;28;20035;-30
2023/01/29 12:07:13;;;;;;;4.30;3.15;;;0.40;99.90;;;;;;5084740;28;20484;-29
2023/01/29 12:09:40;;;;;;;1.98;1.95;;;0.30;99.90;;;;;;5086586;28;20052;-31
2023/01/29 12:12:36;;;;;;;3.92;3.38;;;0.40;99.90;;;;;;5090953;28;20016;-31
2023/01/29 12:15:23;;;;;;;9.55;5.28;;;0.40;99.90;;;;;;5089339;28;20056;-31
2023/01/29 12:18:11;;;;;;;3.65;2.80;;;0.30;99.90;;;;;;5068254;28;20112;-30
2023/01/29 12:20:43;;;;;;;2.50;2.30;;;0.30;99.90;;;;;;5089237;28;20032;-30
2023/01/29 12:23:40;;;;;;;4.63;3.13;;;0.20;99.90;;;;;;5084601;28;20039;-32
2023/01/29 12:26:14;;;;;;;4.50;2.75;;;0.20;99.90;;;;;;5087739;28;20111;-33
2023/01/29 12:28:54;;;;;;;7.40;4.63;;;0.20;99.90;;;;;;5092566;28;20044;-30
2023/01/29 12:31:42;;;;;;;5.20;3.78;;;0.30;99.90;;;;;;5087802;28;20040;-31
2023/01/29 12:34:43;;;;;;;4.93;4.18;;;0.40;99.90;;;;;;5070136;28;20510;-32
2023/01/29 12:37:32;;;;;;;7.78;5.70;;;0.40;99.90;;;;;;5084685;28;20497;-32
2023/01/29 12:39:58;;;;;;;9.77;5.57;;;0.50;99.90;;;;;;5081061;28;20097;-32
2023/01/29 12:42:24;;;;;;;11.02;6.30;;;0.50;99.90;;;;;;5089879;28;20024;-29
2023/01/29 12:45:00;;;;;;;8.68;4.90;;;0.50;99.90;;;;;;5098422;28;20038;-29
2023/01/29 12:47:37;;;;;;;4.63;4.22;;;0.40;99.90;;;;;;5087751;28;20670;-30
2023/01/29 12:50:13;;;;;;;5.57;4.18;;;0.40;99.90;;;;;;5093640;28;20405;-31
2023/01/29 12:52:45;;;;;;;7.90;5.47;;;0.40;99.90;;;;;;5092722;28;20035;-33
2023/01/29 12:55:18;;;;;;;3.40;3.20;;;0.40;99.90;;;;;;5089707;28;20019;-30
2023/01/29 12:57:57;;;;;;;7.43;2.60;;;0.40;99.90;;;;;;5089990;28;20024;-31
2023/01/29 13:00:27;;;;;;;8.10;6.40;;;0.40;99.90;;;;;;5096278;28;20860;-29
2023/01/29 13:02:59;;;;;;;4.80;3.33;;;0.40;99.90;;;;;;5070508;28;20550;-30
2023/01/29 13:05:38;;;;;;;4.65;3.08;;;0.40;99.90;;;;;;5089362;28;20024;-30
2023/01/29 13:08:15;;;;;;;3.22;2.58;;;0.40;99.90;;;;;;5097345;28;20127;-32
2023/01/29 13:10:45;;;;;;;6.53;4.03;;;0.40;99.90;;;;;;5083932;28;20028;-30
2023/01/29 13:13:40;;;;;;;9.98;6.32;;;0.40;99.90;;;;;;5092496;28;20473;-30
2023/01/29 13:16:11;;;;;;;4.85;3.95;;;0.40;99.90;;;;;;5096399;28;20378;-32
2023/01/29 13:18:45;;;;;;;8.07;4.85;;;0.50;99.90;;;;;;5092058;28;20111;-29
2023/01/29 13:21:37;;;;;;;7.18;5.40;;;0.40;99.90;;;;;;5085349;28;20052;-31
2023/01/29 13:24:08;;;;;;;3.65;3.30;;;0.40;99.90;;;;;;5083989;28;20096;-30
2023/01/29 13:26:33;;;;;;;6.75;4.35;;;0.40;99.90;;;;;;5090862;28;20020;-30
2023/01/29 13:29:00;;;;;;;5.25;4.53;;;0.30;99.90;;;;;;5090970;28;20024;-30
2023/01/29 13:31:36;;;;;;;2.15;1.85;;;0.30;99.90;;;;;;5097801;28;20559;-30
2023/01/29 13:34:15;;;;;;;5.85;4.90;;;0.30;99.90;;;;;;5090131;28;20028;-29
2023/01/29 13:36:47;;;;;;;8.20;5.32;;;0.30;99.90;;;;;;5094382;28;20512;-30